首页
METAR-TAF:

METAR-TAF

机场 :

Peachtree City Airport (Falcon Field)

亚特兰大, 喬治亞, 美国

纬度: 33-21-19N, 经度: 084-34-01W, 海拔: 246米

当前天气观测

该预报发布于15分钟前的22:53 UTC
风速6节,风向西
温度 30°C
湿度 40%
气压 1016 hPa
能見度: 16.1公里
天空无云

METAR: KFFC 202253Z AUTO 28006KT 10SM CLR 30/15 A2999 RMK AO2 SLP150 T03000150

时间: 19:08 (23:08 UTC)


TAF: 丢失

超过4000个机场的气象观测和天气预报(METAR&TAF报告)。

可查询的气象台以黄色和红色小点在地图上表示。

将鼠标移到小点上方,可查看气象台名称。

然后点击查看天气观测和预报。

如需切换地图:点击带黑十字的绿色按钮放大地图;点击带横线的绿色按钮缩小地图;或者点击绿色箭头查看邻近地区的地图。


METAR-TAF: